createdAt,value
2023-05-23T00:03:43.594Z,7.70
2023-05-23T00:07:46.432Z,7.40
2023-05-23T00:11:49.212Z,7.40
2023-05-23T00:16:17.373Z,7.70
2023-05-23T00:20:21.285Z,7.90
2023-05-23T00:24:24.519Z,6.10
2023-05-23T00:28:28.066Z,6.60
2023-05-23T00:32:30.874Z,7.90
2023-05-23T00:36:59.847Z,8.80
2023-05-23T00:41:02.595Z,6.80
2023-05-23T00:45:06.152Z,8.50
2023-05-23T00:49:09.502Z,8.10
2023-05-23T00:53:14.665Z,7.80
2023-05-23T00:57:17.630Z,7.60
2023-05-23T01:01:21.257Z,7.70
2023-05-23T01:05:25.124Z,8.50
2023-05-23T01:09:29.205Z,9.00
2023-05-23T01:13:43.210Z,6.50
2023-05-23T01:18:10.213Z,7.10
2023-05-23T01:22:23.582Z,8.00
2023-05-23T01:27:06.015Z,8.30
2023-05-23T01:31:11.174Z,7.60
2023-05-23T01:35:20.212Z,8.70
2023-05-23T01:39:23.688Z,7.50
2023-05-23T01:43:26.880Z,8.10
2023-05-23T01:47:29.981Z,8.40
2023-05-23T01:51:38.788Z,8.10
2023-05-23T01:55:42.872Z,7.70
2023-05-23T01:59:45.954Z,9.40
2023-05-23T02:03:51.336Z,9.80
2023-05-23T02:07:54.082Z,8.00
2023-05-23T02:11:56.808Z,8.10
2023-05-23T02:15:59.605Z,9.30
2023-05-23T02:20:02.539Z,7.20
2023-05-23T02:24:05.535Z,9.10
2023-05-23T02:28:08.296Z,8.90
2023-05-23T02:32:11.172Z,8.60
2023-05-23T02:36:14.317Z,9.60
2023-05-23T02:40:17.296Z,8.50
2023-05-23T02:44:20.204Z,10.50
2023-05-23T02:48:23.052Z,10.10
2023-05-23T02:52:26.244Z,9.40
2023-05-23T02:56:29.255Z,10.10
2023-05-23T03:00:32.590Z,9.50
2023-05-23T03:04:35.466Z,8.50
2023-05-23T03:14:25.491Z,10.60
2023-05-23T03:18:28.327Z,9.80
2023-05-23T03:22:31.228Z,7.80
2023-05-23T03:26:34.166Z,9.60
2023-05-23T03:30:37.296Z,8.40
2023-05-23T03:34:40.556Z,9.80
2023-05-23T03:38:43.435Z,10.50
2023-05-23T03:43:06.320Z,9.30
2023-05-23T03:52:59.078Z,8.80
2023-05-23T03:57:03.580Z,9.30
2023-05-23T04:01:07.776Z,9.10
2023-05-23T04:05:12.150Z,10.50
2023-05-23T04:09:16.552Z,9.30
2023-05-23T04:13:21.416Z,8.90
2023-05-23T04:17:26.026Z,10.00
2023-05-23T04:21:29.571Z,10.30
2023-05-23T04:25:32.894Z,10.80
2023-05-23T04:29:36.465Z,10.10
2023-05-23T04:33:39.694Z,9.50
2023-05-23T04:37:42.882Z,11.30
2023-05-23T04:41:46.458Z,10.90
2023-05-23T04:45:54.462Z,11.30
2023-05-23T04:59:11.907Z,24.50
2023-05-23T05:03:19.888Z,9.60
2023-05-23T05:07:23.724Z,10.80
2023-05-23T05:11:29.806Z,16.70
2023-05-23T05:19:42.262Z,16.50
2023-05-23T05:23:45.339Z,12.90
2023-05-23T05:27:48.397Z,10.80
2023-05-23T05:31:53.510Z,10.70
2023-05-23T05:35:56.617Z,11.40
2023-05-23T05:40:06.282Z,10.80
2023-05-23T05:44:10.575Z,11.90
2023-05-23T05:48:13.817Z,11.10
2023-05-23T05:52:17.071Z,12.60
2023-05-23T05:56:20.903Z,9.50
2023-05-23T06:00:24.215Z,12.60
2023-05-23T06:04:27.595Z,10.30
2023-05-23T06:08:30.771Z,10.70
2023-05-23T06:12:34.672Z,11.90
2023-05-23T06:16:38.021Z,38.50
2023-05-23T06:20:41.483Z,13.40
2023-05-23T06:24:44.837Z,18.60
2023-05-23T06:28:48.063Z,9.70
2023-05-23T06:32:51.475Z,9.10
2023-05-23T06:36:55.216Z,11.00
2023-05-23T06:40:58.299Z,11.30
2023-05-23T06:45:01.458Z,10.10
2023-05-23T06:49:14.255Z,11.70
2023-05-23T06:53:19.323Z,10.10
2023-05-23T06:57:22.709Z,11.40
2023-05-23T07:01:26.915Z,10.90
2023-05-23T07:05:30.226Z,11.70
2023-05-23T07:09:33.718Z,10.20
2023-05-23T07:13:39.094Z,10.40
2023-05-23T07:17:42.339Z,9.50
2023-05-23T07:21:45.574Z,8.60
2023-05-23T07:26:01.204Z,9.50
2023-05-23T07:30:07.997Z,10.20
2023-05-23T07:34:11.232Z,10.90
2023-05-23T07:38:14.460Z,10.70
2023-05-23T07:42:17.804Z,11.20
2023-05-23T07:46:23.168Z,11.00
2023-05-23T07:50:27.930Z,9.30
2023-05-23T07:54:31.362Z,9.90
2023-05-23T07:58:34.571Z,10.90
2023-05-23T08:02:37.862Z,11.90
2023-05-23T08:06:45.799Z,21.40
2023-05-23T08:10:59.382Z,11.00
2023-05-23T08:15:02.512Z,8.70
2023-05-23T08:19:05.943Z,10.60
2023-05-23T08:23:09.214Z,10.80
2023-05-23T08:27:12.410Z,10.50
2023-05-23T08:31:16.196Z,9.90
2023-05-23T08:35:20.067Z,11.90
2023-05-23T08:39:23.408Z,10.60
2023-05-23T08:43:27.063Z,11.40
2023-05-23T08:47:35.259Z,9.90
2023-05-23T08:51:42.836Z,11.30
2023-05-23T08:55:47.784Z,10.70
2023-05-23T08:59:52.547Z,9.90
2023-05-23T09:03:56.396Z,11.00
2023-05-23T09:07:59.883Z,10.30
2023-05-23T09:12:03.607Z,10.90
2023-05-23T09:16:10.495Z,9.10
2023-05-23T09:20:15.889Z,8.80
2023-05-23T09:24:19.750Z,7.00
2023-05-23T09:28:23.912Z,7.80
2023-05-23T09:32:28.157Z,7.40
2023-05-23T09:36:33.837Z,7.00
2023-05-23T09:40:37.083Z,7.30
2023-05-23T09:44:44.006Z,5.30
2023-05-23T09:48:48.610Z,6.10
2023-05-23T09:52:54.073Z,6.00
2023-05-23T09:57:01.647Z,5.00
2023-05-23T10:01:10.261Z,5.80
2023-05-23T10:05:36.514Z,6.70
2023-05-23T10:09:40.229Z,5.00
2023-05-23T10:13:49.451Z,7.90
2023-05-23T10:18:15.977Z,6.80
2023-05-23T10:22:21.214Z,6.70
2023-05-23T10:26:24.502Z,6.50
2023-05-23T10:30:28.534Z,6.60
2023-05-23T10:34:56.048Z,5.60
2023-05-23T10:39:06.275Z,5.50
2023-05-23T10:43:35.042Z,5.70
2023-05-23T10:47:39.872Z,6.20
2023-05-23T10:51:43.233Z,6.10
2023-05-23T10:55:49.437Z,6.50
2023-05-23T10:59:53.888Z,4.70
2023-05-23T11:03:57.476Z,6.00
2023-05-23T11:08:14.730Z,5.30
2023-05-23T11:12:37.935Z,6.40
2023-05-23T11:16:42.804Z,5.10
2023-05-23T11:20:47.702Z,6.40
2023-05-23T11:24:55.333Z,5.50
2023-05-23T11:28:59.672Z,5.50
2023-05-23T11:33:12.333Z,5.30
2023-05-23T11:37:15.788Z,5.60
2023-05-23T11:41:19.728Z,5.20
2023-05-23T11:45:24.005Z,4.20
2023-05-23T11:49:29.409Z,4.70
2023-05-23T11:57:39.926Z,4.70
2023-05-23T12:01:43.897Z,5.30
2023-05-23T12:05:47.164Z,4.70
2023-05-23T12:09:50.505Z,5.30
2023-05-23T12:13:54.040Z,5.50
2023-05-23T12:17:58.255Z,5.80
2023-05-23T12:22:07.736Z,4.80
2023-05-23T12:26:11.114Z,5.90
2023-05-23T12:30:16.497Z,5.40
2023-05-23T12:34:21.816Z,5.90
2023-05-23T12:38:28.860Z,5.00
2023-05-23T12:42:46.952Z,6.00
2023-05-23T12:46:50.485Z,6.10
2023-05-23T12:50:53.762Z,6.40
2023-05-23T12:54:57.114Z,6.20
2023-05-23T12:59:02.189Z,6.90
2023-05-23T13:03:07.061Z,6.10
2023-05-23T13:07:10.568Z,7.10
2023-05-23T13:11:13.958Z,7.10
2023-05-23T13:15:17.680Z,6.20
2023-05-23T13:19:21.229Z,5.90
2023-05-23T13:23:26.531Z,4.80
2023-05-23T13:27:29.991Z,7.60
2023-05-23T13:36:15.257Z,7.60
2023-05-23T13:40:22.020Z,8.00
2023-05-23T13:44:25.639Z,7.20
2023-05-23T13:48:30.869Z,8.20
2023-05-23T13:57:19.917Z,7.80
2023-05-23T14:02:08.459Z,8.00
2023-05-23T14:07:02.083Z,7.30
2023-05-23T14:11:16.533Z,9.00
2023-05-23T14:15:20.117Z,8.30
2023-05-23T14:19:23.809Z,7.50
2023-05-23T14:23:27.565Z,7.30
2023-05-23T14:27:32.896Z,7.10
2023-05-23T14:31:36.933Z,8.80
2023-05-23T14:35:40.736Z,7.20
2023-05-23T14:39:44.631Z,8.40
2023-05-23T14:43:49.796Z,10.40
2023-05-23T14:51:59.683Z,9.70
2023-05-23T14:56:03.526Z,9.90
2023-05-23T15:00:10.637Z,10.80
2023-05-23T15:04:14.890Z,10.60
2023-05-23T15:08:19.280Z,9.80
2023-05-23T15:12:23.179Z,8.40
2023-05-23T15:16:33.551Z,9.00
2023-05-23T15:20:38.170Z,8.60
2023-05-23T15:24:41.850Z,11.50
2023-05-23T15:28:48.460Z,10.10
2023-05-23T15:32:53.664Z,9.20
2023-05-23T15:36:59.536Z,8.60
2023-05-23T15:41:03.370Z,8.80
2023-05-23T15:45:07.234Z,10.70
2023-05-23T15:49:21.700Z,9.70
2023-05-23T15:53:28.364Z,9.10
2023-05-23T15:57:33.465Z,10.10
2023-05-23T16:01:36.857Z,10.90
2023-05-23T16:05:39.950Z,8.20
2023-05-23T16:09:43.164Z,7.90
2023-05-23T16:13:46.308Z,9.70
2023-05-23T16:17:49.442Z,8.80
2023-05-23T16:21:53.139Z,10.70
2023-05-23T16:25:56.459Z,8.60
2023-05-23T16:29:59.956Z,9.00
2023-05-23T16:34:03.484Z,10.40
2023-05-23T16:38:06.786Z,11.90
2023-05-23T16:42:10.143Z,9.30
2023-05-23T16:46:13.659Z,8.50
2023-05-23T16:50:17.623Z,11.60
2023-05-23T16:54:21.458Z,10.80
2023-05-23T16:58:24.682Z,11.40
2023-05-23T17:02:28.097Z,10.90
2023-05-23T17:06:32.386Z,10.10
2023-05-23T17:10:36.581Z,12.10
2023-05-23T17:14:39.770Z,10.40
2023-05-23T17:18:43.185Z,10.90
2023-05-23T17:22:46.635Z,10.00
2023-05-23T17:26:49.984Z,11.00
2023-05-23T17:30:53.453Z,9.90
2023-05-23T17:34:56.688Z,8.40
2023-05-23T17:39:00.057Z,11.30
2023-05-23T17:43:03.452Z,10.00
2023-05-23T17:47:06.933Z,10.90
2023-05-23T17:51:10.442Z,6.90
2023-05-23T17:55:13.798Z,9.40
2023-05-23T17:59:52.486Z,7.50
2023-05-23T18:52:23.304Z,19.90
2023-05-23T18:57:17.647Z,20.30
2023-05-23T19:01:20.626Z,19.10
2023-05-23T19:05:24.420Z,17.50
2023-05-23T19:09:27.332Z,18.90
2023-05-23T19:13:47.806Z,19.30
2023-05-23T19:17:50.597Z,17.60
2023-05-23T19:21:59.026Z,19.40
2023-05-23T19:26:02.772Z,21.30
2023-05-23T19:30:07.079Z,19.50
2023-05-23T19:34:09.896Z,19.60
2023-05-23T19:38:13.155Z,17.90
2023-05-23T19:43:08.203Z,19.40
2023-05-23T19:47:11.700Z,21.70
2023-05-23T19:51:14.630Z,23.90
2023-05-23T19:55:18.972Z,21.80
2023-05-23T19:59:21.793Z,19.70
2023-05-23T20:03:51.567Z,19.00
2023-05-23T20:07:54.378Z,24.40
2023-05-23T20:11:57.269Z,25.50
2023-05-23T20:16:00.342Z,19.50
2023-05-23T20:20:09.034Z,20.40
2023-05-23T20:24:12.614Z,18.40
2023-05-23T20:28:15.645Z,18.20
2023-05-23T20:32:18.600Z,12.80
2023-05-23T20:36:21.491Z,12.20
2023-05-23T20:40:25.698Z,10.20
2023-05-23T20:44:31.780Z,8.00
2023-05-23T20:48:35.167Z,10.90
2023-05-23T20:52:41.422Z,8.40
2023-05-23T20:57:14.855Z,9.30
2023-05-23T21:01:17.683Z,9.50
2023-05-23T21:05:21.873Z,8.80
2023-05-23T21:09:24.660Z,8.70
2023-05-23T21:13:27.780Z,8.10
2023-05-23T21:17:30.759Z,9.20
2023-05-23T21:21:33.606Z,9.50
2023-05-23T21:25:36.446Z,10.00
2023-05-23T21:29:39.247Z,10.70
2023-05-23T21:33:42.118Z,11.50
2023-05-23T21:37:44.913Z,13.80
2023-05-23T21:41:47.765Z,12.30
2023-05-23T21:46:19.480Z,11.90
2023-05-23T21:50:22.317Z,13.40
2023-05-23T21:54:25.444Z,11.50
2023-05-23T21:58:29.285Z,12.30
2023-05-23T22:02:33.138Z,11.70
2023-05-23T22:06:36.595Z,11.60
2023-05-23T22:10:40.892Z,11.80
2023-05-23T22:14:43.873Z,7.90
2023-05-23T22:22:52.586Z,10.50
2023-05-23T22:26:56.023Z,12.40
2023-05-23T22:30:58.822Z,10.10
2023-05-23T22:35:01.817Z,10.30
2023-05-23T22:39:05.612Z,12.60
2023-05-23T22:43:08.647Z,12.50
2023-05-23T22:47:13.772Z,12.50
2023-05-23T22:51:19.842Z,12.10
2023-05-23T22:55:49.038Z,10.60
2023-05-23T22:59:51.877Z,7.20
2023-05-23T23:03:54.650Z,6.40
2023-05-23T23:07:57.506Z,3.40
2023-05-23T23:12:01.194Z,3.80
2023-05-23T23:16:06.576Z,3.00
2023-05-23T23:20:10.309Z,2.40
2023-05-23T23:24:13.671Z,1.90
2023-05-23T23:28:17.546Z,2.00
2023-05-23T23:32:20.365Z,1.20
2023-05-23T23:36:24.292Z,0.80
2023-05-23T23:40:27.211Z,1.00
2023-05-23T23:44:30.293Z,1.00
2023-05-23T23:48:39.062Z,0.60
2023-05-23T23:52:45.877Z,1.70
2023-05-23T23:56:48.699Z,1.50
